createdAt,value
2019-04-23T00:01:58.369Z,4.40
2019-04-23T00:07:06.200Z,4.23
2019-04-23T00:09:40.977Z,4.03
2019-04-23T00:12:12.901Z,4.60
2019-04-23T00:14:45.914Z,4.63
2019-04-23T00:17:15.278Z,5.10
2019-04-23T00:19:41.147Z,5.00
2019-04-23T00:22:23.614Z,4.93
2019-04-23T00:30:18.619Z,4.40
2019-04-23T00:32:34.595Z,5.10
2019-04-23T00:35:05.882Z,4.60
2019-04-23T00:37:35.683Z,5.10
2019-04-23T00:40:11.426Z,4.43
2019-04-23T00:42:47.269Z,4.70
2019-04-23T00:45:16.617Z,4.67
2019-04-23T00:47:51.368Z,4.17
2019-04-23T00:50:36.624Z,4.50
2019-04-23T00:52:57.688Z,4.50
2019-04-23T01:03:17.167Z,4.27
2019-04-23T01:05:52.309Z,4.90
2019-04-23T01:08:25.011Z,4.70
2019-04-23T01:11:18.146Z,4.77
2019-04-23T01:16:14.924Z,4.37
2019-04-23T01:18:58.185Z,5.17
2019-04-23T01:21:22.412Z,4.47
2019-04-23T01:24:37.178Z,4.70
2019-04-23T01:27:49.139Z,4.80
2019-04-23T01:30:28.209Z,4.53
2019-04-23T01:32:44.098Z,5.20
2019-04-23T01:37:47.311Z,5.10
2019-04-23T01:40:32.318Z,5.17
2019-04-23T01:43:02.725Z,4.83
2019-04-23T01:51:22.527Z,4.73
2019-04-23T01:53:38.671Z,5.43
2019-04-23T01:56:11.441Z,5.17
2019-04-23T01:58:47.695Z,5.70
2019-04-23T02:01:21.134Z,4.80
2019-04-23T02:06:25.140Z,5.90
2019-04-23T02:08:53.562Z,5.40
2019-04-23T02:11:25.538Z,5.50
2019-04-23T02:19:09.950Z,5.30
2019-04-23T02:21:54.815Z,4.93
2019-04-23T02:24:36.331Z,5.37
2019-04-23T02:27:12.204Z,4.90
2019-04-23T02:29:51.396Z,5.63
2019-04-23T02:32:29.042Z,4.83
2019-04-23T02:35:50.634Z,5.07
2019-04-23T02:38:00.276Z,4.93
2019-04-23T02:43:22.137Z,5.30
2019-04-23T02:48:24.128Z,5.17
2019-04-23T02:50:53.954Z,5.13
2019-04-23T02:53:36.146Z,5.87
2019-04-23T02:56:05.076Z,5.70
2019-04-23T03:19:32.289Z,5.70
2019-04-23T03:24:59.858Z,5.42
2019-04-23T03:35:09.563Z,6.00
2019-04-23T03:37:55.975Z,6.10
2019-04-23T03:40:21.463Z,6.50
2019-04-23T03:43:10.505Z,6.20
2019-04-23T03:45:46.637Z,6.17
2019-04-23T03:48:21.693Z,5.90
2019-04-23T03:53:14.127Z,5.73
2019-04-23T03:58:21.264Z,5.37
2019-04-23T04:00:59.016Z,5.87
2019-04-23T04:06:20.915Z,6.30
2019-04-23T04:09:03.089Z,6.50
2019-04-23T04:11:14.631Z,5.53
2019-04-23T04:13:50.462Z,5.60
2019-04-23T04:16:35.227Z,5.40
2019-04-23T04:19:16.653Z,5.57
2019-04-23T04:32:43.188Z,5.93
2019-04-23T04:48:03.287Z,8.30
2019-04-23T04:50:40.005Z,6.57
2019-04-23T04:53:10.235Z,6.03
2019-04-23T04:55:45.144Z,6.70
2019-04-23T04:58:12.942Z,6.37
2019-04-23T05:06:21.201Z,6.90
2019-04-23T05:08:58.678Z,6.80
2019-04-23T05:11:35.085Z,7.10
2019-04-23T05:14:13.087Z,6.03
2019-04-23T05:16:49.005Z,7.87
2019-04-23T05:19:29.386Z,6.70
2019-04-23T05:21:53.963Z,6.63
2019-04-23T05:24:21.848Z,6.93
2019-04-23T05:26:37.604Z,7.43
2019-04-23T05:29:22.945Z,6.30
2019-04-23T05:32:01.915Z,6.83
2019-04-23T05:34:36.097Z,6.80
2019-04-23T05:37:04.188Z,6.07
2019-04-23T05:39:39.747Z,6.80
2019-04-23T05:42:26.351Z,7.40
2019-04-23T05:44:52.530Z,6.70
2019-04-23T05:47:23.201Z,6.83
2019-04-23T05:49:54.713Z,6.40
2019-04-23T05:55:56.805Z,7.07
2019-04-23T06:02:07.772Z,6.57
2019-04-23T06:08:25.787Z,7.67
2019-04-23T06:11:19.259Z,7.20
2019-04-23T06:13:56.244Z,7.20
2019-04-23T06:19:43.146Z,7.20
2019-04-23T06:30:00.852Z,7.60
2019-04-23T06:32:37.792Z,7.43
2019-04-23T06:35:11.763Z,6.40
2019-04-23T06:38:04.840Z,8.00
2019-04-23T06:40:14.253Z,7.57
2019-04-23T06:42:58.283Z,7.60
2019-04-23T06:50:47.648Z,7.93
2019-04-23T06:53:09.070Z,6.60
2019-04-23T06:55:42.250Z,7.30
2019-04-23T06:58:23.957Z,7.50
2019-04-23T07:00:48.812Z,7.37
2019-04-23T07:03:27.760Z,7.97
2019-04-23T07:06:17.216Z,7.97
2019-04-23T07:09:03.164Z,7.53
2019-04-23T07:11:27.035Z,7.60
2019-04-23T07:16:17.934Z,8.30
2019-04-23T07:18:50.352Z,7.80
2019-04-23T07:26:30.392Z,8.57
2019-04-23T07:31:26.563Z,7.37
2019-04-23T07:34:01.382Z,6.83
2019-04-23T07:36:35.565Z,7.50
2019-04-23T07:39:38.474Z,7.20
2019-04-23T07:42:25.089Z,7.53
2019-04-23T07:45:19.273Z,8.13
2019-04-23T07:48:10.801Z,6.97
2019-04-23T08:00:57.081Z,6.57
2019-04-23T08:03:23.691Z,7.20
2019-04-23T08:05:44.001Z,7.97
2019-04-23T08:08:26.475Z,7.10
2019-04-23T08:11:29.530Z,7.30
2019-04-23T08:13:45.047Z,6.70
2019-04-23T08:16:19.662Z,6.97
2019-04-23T08:18:45.159Z,7.40
2019-04-23T08:23:55.463Z,7.50
2019-04-23T08:29:14.160Z,8.10
2019-04-23T08:31:50.377Z,7.43
2019-04-23T08:34:36.886Z,6.50
2019-04-23T08:39:28.349Z,7.00
2019-04-23T08:42:10.975Z,7.17
2019-04-23T08:44:46.147Z,7.83
2019-04-23T08:50:02.352Z,6.63
2019-04-23T08:52:18.759Z,7.27
2019-04-23T08:54:58.086Z,7.40
2019-04-23T08:57:22.612Z,8.00
2019-04-23T09:00:07.586Z,6.87
2019-04-23T09:07:45.412Z,6.77
2019-04-23T09:12:55.322Z,6.77
2019-04-23T09:15:23.484Z,7.40
2019-04-23T09:20:31.246Z,6.57
2019-04-23T09:23:13.185Z,6.60
2019-04-23T09:31:16.790Z,6.97
2019-04-23T09:34:26.123Z,7.03
2019-04-23T09:49:46.588Z,7.20
2019-04-23T09:52:24.834Z,7.00
2019-04-23T09:54:58.200Z,6.93
2019-04-23T09:57:17.111Z,7.00
2019-04-23T10:02:22.163Z,6.50
2019-04-23T10:04:51.869Z,7.63
2019-04-23T10:07:26.412Z,6.43
2019-04-23T10:09:44.595Z,7.00
2019-04-23T10:12:14.798Z,6.77
2019-04-23T10:14:59.343Z,6.53
2019-04-23T10:17:22.183Z,6.47
2019-04-23T10:19:52.986Z,7.47
2019-04-23T10:22:25.119Z,6.90
2019-04-23T10:24:57.043Z,6.77
2019-04-23T10:27:27.450Z,6.97
2019-04-23T10:29:57.693Z,6.93
2019-04-23T10:32:27.392Z,7.10
2019-04-23T10:35:10.286Z,6.10
2019-04-23T10:37:39.639Z,5.80
2019-04-23T10:40:11.758Z,6.57
2019-04-23T10:42:43.754Z,5.93
2019-04-23T10:45:57.208Z,6.13
2019-04-23T10:49:00.726Z,6.90
2019-04-23T10:51:42.436Z,6.87
2019-04-23T10:54:18.615Z,6.93
2019-04-23T10:56:43.255Z,7.03
2019-04-23T10:59:15.083Z,6.17
2019-04-23T11:06:45.385Z,7.47
2019-04-23T11:09:36.594Z,6.77
2019-04-23T11:20:24.313Z,7.30
2019-04-23T11:22:36.179Z,7.83
2019-04-23T11:24:48.805Z,6.37
2019-04-23T11:27:32.669Z,6.63
2019-04-23T11:30:05.494Z,6.80
2019-04-23T11:37:45.645Z,6.70
2019-04-23T11:40:04.165Z,7.27
2019-04-23T11:42:38.801Z,6.80
2019-04-23T11:45:21.526Z,7.27
2019-04-23T11:55:02.487Z,7.40
2019-04-23T14:57:42.353Z,7.70
2019-04-23T15:02:38.255Z,6.67
2019-04-23T15:05:11.903Z,7.37
2019-04-23T15:07:38.073Z,7.10
2019-04-23T15:10:18.640Z,6.90
2019-04-23T15:15:19.514Z,7.27
2019-04-23T15:20:22.980Z,7.10
2019-04-23T15:23:25.692Z,7.23
2019-04-23T15:25:36.843Z,7.67
2019-04-23T15:28:07.595Z,6.90
2019-04-23T15:30:30.257Z,6.57
2019-04-23T15:33:11.784Z,6.90
2019-04-23T15:38:30.963Z,7.37
2019-04-23T15:40:45.660Z,6.20
2019-04-23T15:43:14.462Z,7.00
2019-04-23T15:45:44.479Z,6.00
2019-04-23T15:48:16.578Z,6.70
2019-04-23T15:50:51.682Z,6.40
2019-04-23T15:53:14.409Z,6.00
2019-04-23T15:55:59.739Z,6.73
2019-04-23T15:58:37.216Z,7.10
2019-04-23T16:01:21.399Z,6.40
2019-04-23T16:03:21.307Z,7.00
2019-04-23T16:05:51.069Z,8.30
2019-04-23T16:08:58.920Z,6.60
2019-04-23T16:11:33.294Z,6.70
2019-04-23T16:14:13.550Z,6.67
2019-04-23T16:16:29.775Z,6.77
2019-04-23T16:19:19.055Z,7.63
2019-04-23T16:24:20.484Z,6.80
2019-04-23T16:29:48.856Z,6.30
2019-04-23T16:32:14.654Z,6.60
2019-04-23T16:34:40.877Z,7.33
2019-04-23T16:45:09.606Z,6.33
2019-04-23T16:47:28.587Z,7.07
2019-04-23T16:50:11.442Z,7.83
2019-04-23T16:52:32.647Z,6.40
2019-04-23T16:55:07.546Z,7.40
2019-04-23T17:02:45.821Z,7.20
2019-04-23T17:05:19.528Z,6.33
2019-04-23T17:35:26.923Z,7.93
2019-04-23T17:38:24.851Z,7.37
2019-04-23T17:41:22.044Z,7.30
2019-04-23T17:58:06.278Z,8.03
2019-04-23T18:23:28.339Z,8.13
2019-04-23T18:26:12.303Z,8.37
2019-04-23T18:31:31.691Z,7.73
2019-04-23T18:36:54.584Z,8.23
2019-04-23T18:39:49.865Z,8.17
2019-04-23T18:56:41.838Z,10.70
2019-04-23T19:02:20.526Z,9.20
2019-04-23T19:14:25.674Z,9.30
2019-04-23T19:17:44.003Z,10.37
2019-04-23T19:22:28.084Z,9.43
2019-04-23T19:25:01.063Z,10.80
2019-04-23T19:27:37.148Z,9.40
2019-04-23T19:32:57.205Z,8.60
2019-04-23T19:39:11.099Z,10.73
2019-04-23T19:42:17.645Z,10.83
2019-04-23T19:45:21.075Z,8.67
2019-04-23T19:50:44.686Z,9.60
2019-04-23T20:04:39.333Z,10.20
2019-04-23T20:07:35.770Z,10.20
2019-04-23T20:10:12.379Z,10.83
2019-04-23T20:12:38.710Z,10.43
2019-04-23T20:15:00.289Z,10.20
2019-04-23T20:20:19.401Z,11.55
2019-04-23T20:22:52.010Z,10.00
2019-04-23T20:25:57.011Z,10.27
2019-04-23T20:29:11.961Z,8.73
2019-04-23T20:35:08.582Z,8.37
2019-04-23T20:40:44.625Z,8.20
2019-04-23T20:43:22.612Z,9.30
2019-04-23T20:46:00.261Z,9.17
2019-04-23T20:51:55.287Z,9.20
2019-04-23T20:54:35.478Z,9.70
2019-04-23T21:00:24.106Z,9.88
2019-04-23T21:05:36.842Z,9.53
2019-04-23T21:08:06.021Z,10.27
2019-04-23T21:10:53.700Z,9.33
2019-04-23T21:18:22.414Z,8.70
2019-04-23T21:21:00.873Z,9.20
2019-04-23T21:23:29.922Z,9.07
2019-04-23T21:26:17.515Z,9.70
2019-04-23T21:28:44.008Z,9.60
2019-04-23T21:31:19.503Z,8.97
2019-04-23T21:34:07.822Z,9.57
2019-04-23T21:37:07.836Z,9.33
2019-04-23T21:45:40.770Z,12.00
2019-04-23T21:50:49.564Z,9.97
2019-04-23T21:53:38.764Z,10.37
2019-04-23T21:58:58.058Z,10.10
2019-04-23T22:04:09.100Z,9.50
2019-04-23T22:16:50.066Z,9.90
2019-04-23T22:19:17.106Z,10.07
2019-04-23T22:21:50.820Z,8.90
2019-04-23T22:24:19.373Z,8.83
2019-04-23T22:27:05.875Z,10.10
2019-04-23T22:35:07.215Z,9.20
2019-04-23T22:37:48.315Z,9.50
2019-04-23T22:40:10.094Z,9.60
2019-04-23T22:45:44.400Z,8.73
2019-04-23T22:48:13.727Z,9.00
2019-04-23T22:51:05.153Z,7.93
2019-04-23T22:53:31.438Z,8.30
2019-04-23T22:56:10.924Z,8.07
2019-04-23T22:58:56.366Z,9.00
2019-04-23T23:06:52.271Z,8.90
2019-04-23T23:12:22.988Z,8.60
2019-04-23T23:15:01.401Z,8.03
2019-04-23T23:20:48.902Z,8.30
2019-04-23T23:23:17.981Z,7.80
2019-04-23T23:25:53.994Z,8.03
2019-04-23T23:28:40.996Z,8.53
2019-04-23T23:31:16.134Z,8.17
2019-04-23T23:34:06.872Z,8.87
2019-04-23T23:39:29.495Z,8.73
2019-04-23T23:42:04.117Z,9.13
2019-04-23T23:44:43.957Z,8.57
2019-04-23T23:49:54.504Z,8.90
2019-04-23T23:52:19.875Z,8.80
2019-04-23T23:54:53.101Z,9.43
